createdAt,value
2022-09-26T00:00:42.639Z,10.8
2022-09-26T00:01:42.988Z,10.8
2022-09-26T00:02:42.903Z,10.8
2022-09-26T00:03:42.936Z,10.8
2022-09-26T00:04:43.034Z,10.88
2022-09-26T00:05:43.137Z,10.88
2022-09-26T00:06:43.242Z,10.8
2022-09-26T00:07:43.344Z,10.8
2022-09-26T00:08:43.496Z,10.8
2022-09-26T00:09:43.648Z,10.8
2022-09-26T00:10:43.802Z,10.8
2022-09-26T00:11:43.947Z,10.88
2022-09-26T00:12:44.051Z,10.88
2022-09-26T00:13:44.155Z,10.8
2022-09-26T00:14:44.266Z,10.8
2022-09-26T00:15:44.413Z,10.8
2022-09-26T00:16:44.607Z,10.8
2022-09-26T00:17:44.658Z,10.8
2022-09-26T00:18:44.768Z,10.8
2022-09-26T00:19:44.913Z,10.719999
2022-09-26T00:20:45.014Z,10.8
2022-09-26T00:21:45.115Z,10.719999
2022-09-26T00:22:45.215Z,10.8
2022-09-26T00:23:45.325Z,10.8
2022-09-26T00:24:45.431Z,10.8
2022-09-26T00:25:45.573Z,10.8
2022-09-26T00:26:45.677Z,10.8
2022-09-26T00:27:45.779Z,10.8
2022-09-26T00:28:45.930Z,10.8
2022-09-26T00:29:46.123Z,10.8
2022-09-26T00:30:46.241Z,10.8
2022-09-26T00:31:46.332Z,10.719999
2022-09-26T00:32:46.449Z,10.8
2022-09-26T00:33:46.585Z,10.719999
2022-09-26T00:34:46.742Z,10.719999
2022-09-26T00:35:46.840Z,10.719999
2022-09-26T00:36:46.996Z,10.719999
2022-09-26T00:37:47.095Z,10.719999
2022-09-26T00:38:47.193Z,10.8
2022-09-26T00:39:47.350Z,10.8
2022-09-26T00:40:47.477Z,10.719999
2022-09-26T00:41:47.555Z,10.719999
2022-09-26T00:42:47.705Z,10.8
2022-09-26T00:43:47.810Z,10.719999
2022-09-26T00:44:47.965Z,10.719999
2022-09-26T00:45:48.108Z,10.719999
2022-09-26T00:46:48.160Z,10.719999
2022-09-26T00:47:48.326Z,10.639999
2022-09-26T00:48:48.461Z,10.8
2022-09-26T00:49:48.571Z,10.719999
2022-09-26T00:50:48.679Z,10.639999
2022-09-26T00:51:48.821Z,10.639999
2022-09-26T00:52:48.938Z,10.639999
2022-09-26T00:53:49.021Z,10.719999
2022-09-26T00:54:49.184Z,10.639999
2022-09-26T00:55:49.276Z,10.639999
2022-09-26T00:56:49.383Z,10.639999
2022-09-26T00:57:49.483Z,10.48
2022-09-26T00:58:49.592Z,10.48
2022-09-26T00:59:49.743Z,10.48
2022-09-26T01:00:49.874Z,10.48
2022-09-26T01:01:50.095Z,10.48
2022-09-26T01:02:50.085Z,10.48
2022-09-26T01:03:50.199Z,10.48
2022-09-26T01:04:50.292Z,10.48
2022-09-26T01:05:50.394Z,10.4
2022-09-26T01:06:50.498Z,10.4
2022-09-26T01:07:50.596Z,10.48
2022-09-26T01:08:50.746Z,10.4
2022-09-26T01:09:50.850Z,10.4
2022-09-26T01:10:50.952Z,10.48
2022-09-26T01:11:51.067Z,10.4
2022-09-26T01:12:51.207Z,10.4
2022-09-26T01:13:51.359Z,10.4
2022-09-26T01:14:51.478Z,10.4
2022-09-26T01:15:51.563Z,10.4
2022-09-26T01:16:51.761Z,10.4
2022-09-26T01:17:51.816Z,10.32
2022-09-26T01:18:51.920Z,10.4
2022-09-26T01:19:52.017Z,10.4
2022-09-26T01:20:52.123Z,10.48
2022-09-26T01:21:52.223Z,10.32
2022-09-26T01:22:52.322Z,10.32
2022-09-26T01:23:52.471Z,10.32
2022-09-26T01:24:52.576Z,10.32
2022-09-26T01:25:52.690Z,10.32
2022-09-26T01:26:52.836Z,10.24
2022-09-26T01:27:52.981Z,10.32
2022-09-26T01:28:53.085Z,10.32
2022-09-26T01:29:53.230Z,10.32
2022-09-26T01:30:53.410Z,10.32
2022-09-26T01:31:53.440Z,10.24
2022-09-26T01:32:53.592Z,10.32
2022-09-26T01:33:53.697Z,10.24
2022-09-26T01:34:53.850Z,10.24
2022-09-26T01:35:54.002Z,10.24
2022-09-26T01:36:54.096Z,10.24
2022-09-26T01:37:54.198Z,10.24
2022-09-26T01:38:54.299Z,10.24
2022-09-26T01:39:54.455Z,10.24
2022-09-26T01:40:54.674Z,10.24
2022-09-26T01:41:54.705Z,10.24
2022-09-26T01:42:54.808Z,10.24
2022-09-26T01:43:54.910Z,10.24
2022-09-26T01:44:55.018Z,10.4
2022-09-26T01:45:55.204Z,10.32
2022-09-26T01:46:55.263Z,10.32
2022-09-26T01:47:55.374Z,10.32
2022-09-26T01:48:55.475Z,10.24
2022-09-26T01:49:55.577Z,10.24
2022-09-26T01:50:55.728Z,10.32
2022-09-26T01:51:55.874Z,10.24
2022-09-26T01:52:55.983Z,10.32
2022-09-26T01:53:56.082Z,10.32
2022-09-26T01:54:56.188Z,10.24
2022-09-26T01:55:56.339Z,10.24
2022-09-26T01:56:56.437Z,10.24
2022-09-26T01:57:56.538Z,10.24
2022-09-26T01:58:56.637Z,10.08
2022-09-26T01:59:56.757Z,10
2022-09-26T02:00:56.895Z,10
2022-09-26T02:01:57.036Z,10
2022-09-26T02:02:57.142Z,9.92
2022-09-26T02:03:57.244Z,9.84
2022-09-26T02:04:57.347Z,9.679999
2022-09-26T02:05:57.449Z,9.599999
2022-09-26T02:06:57.549Z,9.599999
2022-09-26T02:07:57.654Z,9.52
2022-09-26T02:08:57.755Z,9.52
2022-09-26T02:09:57.859Z,9.52
2022-09-26T02:10:58.010Z,9.599999
2022-09-26T02:11:58.107Z,9.52
2022-09-26T02:12:58.210Z,9.36
2022-09-26T02:13:58.313Z,9.36
2022-09-26T02:14:58.425Z,9.28
2022-09-26T02:15:58.568Z,9.28
2022-09-26T02:16:58.825Z,9.28
2022-09-26T02:17:58.777Z,9.2
2022-09-26T02:18:58.875Z,9.28
2022-09-26T02:19:58.979Z,9.28
2022-09-26T02:20:59.081Z,9.28
2022-09-26T02:21:59.176Z,9.28
2022-09-26T02:22:59.330Z,9.2
2022-09-26T02:23:59.479Z,9.2
2022-09-26T02:24:59.583Z,9.2
2022-09-26T02:25:59.684Z,9.2
2022-09-26T02:26:59.836Z,9.2
2022-09-26T02:27:59.938Z,9.2
2022-09-26T02:29:00.087Z,9.2
2022-09-26T02:30:00.224Z,9.2
2022-09-26T02:31:00.292Z,9.12
2022-09-26T02:32:00.479Z,9.12
2022-09-26T02:33:00.545Z,9.12
2022-09-26T02:34:00.647Z,9.12
2022-09-26T02:35:00.749Z,9.12
2022-09-26T02:36:00.853Z,9.12
2022-09-26T02:37:00.951Z,9.12
2022-09-26T02:38:01.054Z,9.12
2022-09-26T02:39:01.212Z,9.12
2022-09-26T02:40:01.318Z,9.12
2022-09-26T02:41:01.563Z,9.12
2022-09-26T02:42:01.614Z,9.12
2022-09-26T02:43:01.713Z,9.12
2022-09-26T02:44:01.876Z,9.12
2022-09-26T02:45:02.032Z,9.2
2022-09-26T02:46:02.187Z,9.2
2022-09-26T02:47:02.222Z,9.12
2022-09-26T02:48:02.326Z,9.12
2022-09-26T02:49:02.422Z,9.12
2022-09-26T02:50:02.577Z,9.12
2022-09-26T02:51:02.683Z,9.12
2022-09-26T02:52:02.829Z,9.12
2022-09-26T02:53:02.933Z,9.12
2022-09-26T02:54:03.029Z,9.12
2022-09-26T02:55:03.135Z,9.12
2022-09-26T02:56:03.282Z,9.12
2022-09-26T02:57:03.444Z,9.12
2022-09-26T02:58:03.541Z,9.12
2022-09-26T02:59:03.698Z,9.12
2022-09-26T03:00:03.819Z,9.12
2022-09-26T03:01:04.040Z,9.12
2022-09-26T03:02:04.049Z,9.12
2022-09-26T03:03:04.148Z,9.12
2022-09-26T03:04:04.251Z,9.12
2022-09-26T03:05:04.413Z,9.12
2022-09-26T03:06:04.457Z,9.04
2022-09-26T03:07:04.611Z,9.12
2022-09-26T03:08:04.718Z,9.12
2022-09-26T03:09:04.809Z,9.12
2022-09-26T03:10:04.917Z,9.12
2022-09-26T03:11:05.012Z,9.12
2022-09-26T03:12:05.163Z,9.12
2022-09-26T03:13:05.269Z,9.12
2022-09-26T03:14:05.366Z,9.12
2022-09-26T03:15:05.483Z,9.12
2022-09-26T03:16:05.603Z,9.2
2022-09-26T03:17:05.675Z,9.2
2022-09-26T03:18:05.774Z,9.2
2022-09-26T03:19:06.014Z,9.2
2022-09-26T03:20:06.077Z,9.12
2022-09-26T03:21:06.235Z,9.12
2022-09-26T03:22:06.350Z,9.12
2022-09-26T03:23:06.438Z,9.2
2022-09-26T03:24:06.542Z,9.12
2022-09-26T03:25:06.647Z,9.2
2022-09-26T03:26:06.792Z,9.2
2022-09-26T03:27:06.891Z,9.28
2022-09-26T03:28:07.049Z,9.28
2022-09-26T03:29:07.152Z,9.2
2022-09-26T03:30:07.312Z,9.2
2022-09-26T03:31:07.447Z,9.2
2022-09-26T03:32:07.591Z,9.28
2022-09-26T03:33:07.702Z,9.28
2022-09-26T03:34:07.806Z,9.28
2022-09-26T03:35:07.905Z,9.36
2022-09-26T03:36:08.005Z,9.36
2022-09-26T03:37:08.116Z,9.36
2022-09-26T03:38:11.302Z,9.36
2022-09-26T03:39:08.363Z,9.36
2022-09-26T03:40:08.463Z,9.52
2022-09-26T03:41:08.577Z,9.52
2022-09-26T03:42:08.717Z,9.36
2022-09-26T03:43:08.869Z,9.36
2022-09-26T03:44:09.021Z,9.36
2022-09-26T03:45:09.133Z,9.36
2022-09-26T03:46:09.361Z,9.36
2022-09-26T03:47:09.392Z,9.36
2022-09-26T03:48:09.532Z,9.36
2022-09-26T03:49:09.723Z,9.52
2022-09-26T03:50:09.791Z,9.36
2022-09-26T03:51:09.896Z,9.36
2022-09-26T03:52:10.036Z,9.52
2022-09-26T03:53:10.139Z,9.52
2022-09-26T03:54:10.244Z,9.52
2022-09-26T03:55:10.342Z,9.599999
2022-09-26T03:56:10.446Z,9.52
2022-09-26T03:57:10.596Z,9.599999
2022-09-26T03:58:10.747Z,9.599999
2022-09-26T03:59:10.848Z,9.679999
2022-09-26T04:00:10.961Z,9.679999
2022-09-26T04:01:11.105Z,9.679999
2022-09-26T04:02:11.205Z,9.599999
2022-09-26T04:03:11.254Z,9.599999
2022-09-26T04:04:11.360Z,9.599999
2022-09-26T04:05:11.456Z,9.599999
2022-09-26T04:06:11.609Z,9.84
2022-09-26T04:07:11.711Z,9.84
2022-09-26T04:08:11.861Z,9.599999
2022-09-26T04:09:15.990Z,9.599999
2022-09-26T04:10:12.071Z,9.52
2022-09-26T04:11:12.219Z,9.52
2022-09-26T04:12:12.318Z,9.52
2022-09-26T04:13:19.929Z,9.52
2022-09-26T04:14:12.579Z,9.52
2022-09-26T04:15:12.685Z,9.599999
2022-09-26T04:16:12.815Z,9.599999
2022-09-26T04:17:12.928Z,9.679999
2022-09-26T04:18:13.030Z,9.679999
2022-09-26T04:19:13.134Z,9.679999
2022-09-26T04:20:13.291Z,9.679999
2022-09-26T04:21:13.393Z,9.679999
2022-09-26T04:22:13.510Z,9.679999
2022-09-26T04:23:13.589Z,9.679999
2022-09-26T04:24:13.689Z,9.92
2022-09-26T04:25:13.795Z,9.92
2022-09-26T04:26:16.520Z,10
2022-09-26T04:27:14.003Z,10.08
2022-09-26T04:28:14.149Z,10.24
2022-09-26T04:29:14.377Z,10.08
2022-09-26T04:30:14.413Z,10
2022-09-26T04:31:14.552Z,10
2022-09-26T04:32:14.608Z,9.92
2022-09-26T04:33:14.758Z,9.92
2022-09-26T04:34:14.871Z,9.92
2022-09-26T04:35:14.960Z,9.92
2022-09-26T04:36:15.110Z,9.92
2022-09-26T04:37:15.219Z,10
2022-09-26T04:38:15.363Z,10
2022-09-26T04:39:15.789Z,10.08
2022-09-26T04:40:15.775Z,10.08
2022-09-26T04:41:15.824Z,10
2022-09-26T04:42:15.924Z,10.08
2022-09-26T04:43:16.027Z,10
2022-09-26T04:44:16.133Z,10
2022-09-26T04:45:16.258Z,10
2022-09-26T04:46:20.747Z,10
2022-09-26T04:47:16.512Z,9.92
2022-09-26T04:48:16.619Z,9.92
2022-09-26T04:49:16.689Z,9.84
2022-09-26T04:50:16.786Z,9.84
2022-09-26T04:51:16.905Z,9.84
2022-09-26T04:52:16.991Z,9.84
2022-09-26T04:53:17.093Z,9.84
2022-09-26T04:54:17.197Z,9.84
2022-09-26T04:55:17.349Z,9.84
2022-09-26T04:56:17.446Z,9.84
2022-09-26T04:57:19.794Z,9.84
2022-09-26T04:58:17.661Z,9.679999
2022-09-26T04:59:17.803Z,9.679999
2022-09-26T05:00:17.914Z,9.599999
2022-09-26T05:01:18.192Z,9.84
2022-09-26T05:02:18.197Z,9.84
2022-09-26T05:03:18.308Z,9.679999
2022-09-26T05:04:18.415Z,9.84
2022-09-26T05:05:18.573Z,9.679999
2022-09-26T05:06:18.669Z,9.679999
2022-09-26T05:07:18.771Z,9.679999
2022-09-26T05:08:18.920Z,9.679999
2022-09-26T05:09:19.073Z,10
2022-09-26T05:10:19.190Z,9.92
2022-09-26T05:11:19.291Z,9.92
2022-09-26T05:12:19.382Z,10
2022-09-26T05:13:19.494Z,9.84
2022-09-26T05:14:19.626Z,9.679999
2022-09-26T05:15:19.781Z,9.679999
2022-09-26T05:16:19.935Z,9.84
2022-09-26T05:17:19.982Z,9.84
2022-09-26T05:18:20.092Z,9.84
2022-09-26T05:19:20.241Z,9.84
2022-09-26T05:20:20.343Z,9.92
2022-09-26T05:21:20.496Z,9.92
2022-09-26T05:22:20.642Z,9.92
2022-09-26T05:23:20.750Z,9.84
2022-09-26T05:24:20.849Z,9.92
2022-09-26T05:25:20.947Z,10
2022-09-26T05:26:21.051Z,9.92
2022-09-26T05:27:21.151Z,9.84
2022-09-26T05:28:21.301Z,9.84
2022-09-26T05:29:21.410Z,9.92
2022-09-26T05:30:21.518Z,9.84
2022-09-26T05:31:21.744Z,9.92
2022-09-26T05:32:21.763Z,9.92
2022-09-26T05:33:21.870Z,9.84
2022-09-26T05:34:22.010Z,9.84
2022-09-26T05:35:22.128Z,9.84
2022-09-26T05:36:22.296Z,10
2022-09-26T05:37:22.382Z,10
2022-09-26T05:38:22.524Z,10
2022-09-26T05:39:22.673Z,10
2022-09-26T05:40:22.884Z,10.08
2022-09-26T05:41:22.948Z,10
2022-09-26T05:42:23.034Z,10
2022-09-26T05:43:23.181Z,10
2022-09-26T05:44:23.341Z,10
2022-09-26T05:45:23.480Z,10
2022-09-26T05:46:23.671Z,9.92
2022-09-26T05:47:23.788Z,9.92
2022-09-26T05:48:23.892Z,9.92
2022-09-26T05:49:24.004Z,9.92
2022-09-26T05:50:24.146Z,9.92
2022-09-26T05:51:24.243Z,9.92
2022-09-26T05:52:24.348Z,10
2022-09-26T05:53:24.450Z,9.92
2022-09-26T05:54:24.611Z,10
2022-09-26T05:55:24.710Z,10
2022-09-26T05:56:24.807Z,9.92
2022-09-26T05:57:24.906Z,10.08
2022-09-26T05:58:25.057Z,10
2022-09-26T05:59:25.162Z,10.08
2022-09-26T06:00:25.277Z,10
2022-09-26T06:01:25.472Z,10.08
2022-09-26T06:02:25.623Z,10.08
2022-09-26T06:03:25.666Z,10.08
2022-09-26T06:04:25.772Z,10.08
2022-09-26T06:05:25.915Z,10.24
2022-09-26T06:06:26.020Z,10
2022-09-26T06:07:26.175Z,10.08
2022-09-26T06:08:26.275Z,10.08
2022-09-26T06:09:26.424Z,10.08
2022-09-26T06:10:26.579Z,10
2022-09-26T06:11:26.678Z,10
2022-09-26T06:12:26.780Z,9.92
2022-09-26T06:13:26.930Z,10.08
2022-09-26T06:14:27.036Z,10.08
2022-09-26T06:15:27.145Z,10
2022-09-26T06:16:27.309Z,10.08
2022-09-26T06:17:27.344Z,10.08
2022-09-26T06:18:27.493Z,10.08
2022-09-26T06:19:27.773Z,10.08
2022-09-26T06:20:28.019Z,10.32
2022-09-26T06:21:27.995Z,10.32
2022-09-26T06:22:28.162Z,10.32
2022-09-26T06:23:28.262Z,10.32
2022-09-26T06:24:28.360Z,10.32
2022-09-26T06:25:28.457Z,10.4
2022-09-26T06:26:28.608Z,10.32
2022-09-26T06:27:28.708Z,10.32
2022-09-26T06:28:28.859Z,10.32
2022-09-26T06:29:28.964Z,10.4
2022-09-26T06:30:29.118Z,10.48
2022-09-26T06:31:29.344Z,10.4
2022-09-26T06:32:29.371Z,10.48
2022-09-26T06:33:33.216Z,10.48
2022-09-26T06:34:29.621Z,10.4
2022-09-26T06:35:29.784Z,10.48
2022-09-26T06:36:29.879Z,10.48
2022-09-26T06:37:30.028Z,10.639999
2022-09-26T06:38:30.131Z,10.639999
2022-09-26T06:39:30.278Z,10.719999
2022-09-26T06:40:30.507Z,10.639999
2022-09-26T06:41:30.584Z,10.48
2022-09-26T06:42:30.692Z,10.639999
2022-09-26T06:43:30.791Z,10.639999
2022-09-26T06:44:30.890Z,10.639999
2022-09-26T06:45:30.996Z,10.639999
2022-09-26T06:46:31.211Z,10.719999
2022-09-26T06:47:31.292Z,10.719999
2022-09-26T06:48:31.450Z,10.8
2022-09-26T06:49:31.556Z,11.12
2022-09-26T06:50:31.650Z,11.2
2022-09-26T06:51:31.950Z,12.639999
2022-09-26T06:52:32.111Z,12
2022-09-26T06:53:32.256Z,11.52
2022-09-26T06:54:32.359Z,11.12
2022-09-26T06:55:32.517Z,11.599999
2022-09-26T06:56:32.617Z,11.92
2022-09-26T06:57:32.713Z,12.639999
2022-09-26T06:58:32.819Z,13.679999
2022-09-26T06:59:32.916Z,14.32
2022-09-26T07:00:33.077Z,14.4
2022-09-26T07:01:33.286Z,13.679999
2022-09-26T07:02:33.320Z,14.639999
2022-09-26T07:03:33.428Z,14.799999
2022-09-26T07:04:33.527Z,14.719999
2022-09-26T07:05:33.685Z,15.52
2022-09-26T07:06:33.777Z,15.04
2022-09-26T07:07:33.931Z,15.2
2022-09-26T07:08:57.709Z,15.92
2022-09-26T07:09:34.211Z,16.32
2022-09-26T07:10:34.290Z,15.599999
2022-09-26T07:11:50.822Z,16.8
2022-09-26T07:12:34.486Z,16.8
2022-09-26T07:13:34.590Z,17.04
2022-09-26T07:14:34.746Z,17.04
2022-09-26T07:15:34.849Z,17.12
2022-09-26T07:16:35.020Z,16.24
2022-09-26T07:17:35.096Z,16
2022-09-26T07:18:35.201Z,17.76
2022-09-26T07:19:35.302Z,17.76
2022-09-26T07:20:35.458Z,17.52
2022-09-26T07:21:35.551Z,17.52
2022-09-26T07:22:35.668Z,16.72
2022-09-26T07:23:35.757Z,17.2
2022-09-26T07:24:35.871Z,17.52
2022-09-26T07:25:36.012Z,16.88
2022-09-26T07:26:36.111Z,18.24
2022-09-26T07:27:36.213Z,19.12
2022-09-26T07:28:36.368Z,19.04
2022-09-26T07:29:36.514Z,19.04
2022-09-26T07:30:36.622Z,18.4
2022-09-26T07:31:36.815Z,19.04
2022-09-26T07:32:36.821Z,17.76
2022-09-26T07:33:36.926Z,17.2
2022-09-26T07:34:37.085Z,15.599999
2022-09-26T07:35:37.235Z,15.92
2022-09-26T07:36:37.385Z,15.679999
2022-09-26T07:37:37.485Z,16.64
2022-09-26T07:38:37.594Z,15.679999
2022-09-26T07:39:37.741Z,16.8
2022-09-26T07:40:37.870Z,16.48
2022-09-26T07:41:37.936Z,16.64
2022-09-26T07:42:38.090Z,19.12
2022-09-26T07:44:19.166Z,19.2
2022-09-26T07:45:17.376Z,18.8
2022-09-26T07:45:38.495Z,19.12
2022-09-26T07:46:38.690Z,18.4
2022-09-26T07:47:38.750Z,18.8
2022-09-26T07:48:38.858Z,18.24
2022-09-26T07:49:38.951Z,18.24
2022-09-26T07:50:39.059Z,17.44
2022-09-26T07:51:39.162Z,17.92
2022-09-26T07:52:39.258Z,16.64
2022-09-26T07:53:39.360Z,16.72
2022-09-26T07:54:39.460Z,16.48
2022-09-26T07:55:39.582Z,16.48
2022-09-26T07:56:39.716Z,17.04
2022-09-26T07:57:39.822Z,15.599999
2022-09-26T07:58:39.921Z,15.52
2022-09-26T07:59:40.063Z,15.92
2022-09-26T08:00:40.170Z,17.44
2022-09-26T08:01:40.374Z,16.8
2022-09-26T08:02:40.495Z,17.52
2022-09-26T08:03:40.583Z,16.72
2022-09-26T08:04:40.681Z,16
2022-09-26T08:05:40.779Z,15.12
2022-09-26T08:06:40.883Z,15.12
2022-09-26T08:07:42.139Z,14.4
2022-09-26T08:08:41.191Z,14.32
2022-09-26T08:09:41.343Z,14.799999
2022-09-26T08:10:41.488Z,15.04
2022-09-26T08:11:41.599Z,14.32
2022-09-26T08:12:41.728Z,15.04
2022-09-26T08:13:41.844Z,15.92
2022-09-26T08:14:41.994Z,16.88
2022-09-26T08:15:42.155Z,16.8
2022-09-26T08:16:42.258Z,17.44
2022-09-26T08:17:42.354Z,16.8
2022-09-26T08:18:42.456Z,16.88
2022-09-26T08:19:42.554Z,16.88
2022-09-26T08:20:42.660Z,16.08
2022-09-26T08:21:42.762Z,16.08
2022-09-26T08:22:42.913Z,15.599999
2022-09-26T08:23:43.015Z,14.799999
2022-09-26T08:24:43.115Z,14.32
2022-09-26T08:25:43.265Z,14.48
2022-09-26T08:26:44.507Z,15.2
2022-09-26T08:27:43.588Z,14.799999
2022-09-26T08:28:43.665Z,14.48
2022-09-26T08:29:43.779Z,15.679999
2022-09-26T08:30:43.892Z,16.32
2022-09-26T08:31:44.024Z,15.679999
2022-09-26T08:32:44.126Z,15.2
2022-09-26T08:33:44.279Z,15.839999
2022-09-26T08:34:44.427Z,15.839999
2022-09-26T08:35:44.529Z,16.48
2022-09-26T08:36:44.638Z,16.24
2022-09-26T08:37:44.784Z,15.44
2022-09-26T08:38:44.940Z,15.679999
2022-09-26T08:39:45.088Z,14.88
2022-09-26T08:40:45.206Z,15.12
2022-09-26T08:41:45.341Z,14.639999
2022-09-26T08:42:45.447Z,14.32
2022-09-26T08:43:45.604Z,13.679999
2022-09-26T08:44:45.700Z,14
2022-09-26T08:45:47.830Z,13.84
2022-09-26T08:46:45.937Z,13.92
2022-09-26T08:47:46.008Z,13.84
2022-09-26T08:48:46.104Z,14.4
2022-09-26T08:49:46.209Z,14.799999
2022-09-26T08:50:46.307Z,16.4
2022-09-26T08:51:46.411Z,17.04
2022-09-26T08:52:46.565Z,17.92
2022-09-26T08:53:46.713Z,18.88
2022-09-26T08:54:46.814Z,19.12
2022-09-26T08:55:46.970Z,19.2
2022-09-26T08:56:47.073Z,19.44
2022-09-26T08:57:47.176Z,19.28
2022-09-26T08:58:47.323Z,20.08
2022-09-26T08:59:47.472Z,19.92
2022-09-26T09:00:47.629Z,20.64
2022-09-26T09:01:47.833Z,20.8
2022-09-26T09:02:47.940Z,20.32
2022-09-26T09:03:47.939Z,20.48
2022-09-26T09:04:50.300Z,18.72
2022-09-26T09:05:48.191Z,20.24
2022-09-26T09:06:48.292Z,20.88
2022-09-26T09:07:48.394Z,16.72
2022-09-26T09:08:48.553Z,16.32
2022-09-26T09:09:48.648Z,18.08
2022-09-26T09:10:48.802Z,18.48
2022-09-26T09:11:51.002Z,19.92
2022-09-26T09:12:48.999Z,21.12
2022-09-26T09:13:49.098Z,20.32
2022-09-26T09:15:02.570Z,20.4
2022-09-26T09:15:49.398Z,21.44
2022-09-26T09:16:49.456Z,21.04
2022-09-26T09:17:49.555Z,19.52
2022-09-26T09:18:49.759Z,19.28
2022-09-26T09:19:49.858Z,18.8
2022-09-26T09:20:50.023Z,17.2
2022-09-26T09:21:50.109Z,17.44
2022-09-26T09:22:50.264Z,17.6
2022-09-26T09:23:50.373Z,19.92
2022-09-26T09:24:50.483Z,20.8
2022-09-26T09:25:50.652Z,20.4
2022-09-26T09:27:52.890Z,22.64
2022-09-26T09:28:51.027Z,22.24
2022-09-26T09:29:51.135Z,21.2
2022-09-26T09:30:51.357Z,22.24
2022-09-26T09:31:51.395Z,22.4
2022-09-26T09:32:51.490Z,21.6
2022-09-26T09:33:51.594Z,23.44
2022-09-26T09:34:53.915Z,23.28
2022-09-26T09:35:51.889Z,24.08
2022-09-26T09:36:51.988Z,23.44
2022-09-26T09:37:52.094Z,23.12
2022-09-26T09:38:52.197Z,22.88
2022-09-26T09:39:52.349Z,20.24
2022-09-26T09:40:52.601Z,21.68
2022-09-26T09:41:52.646Z,19.28
2022-09-26T09:42:52.752Z,20.48
2022-09-26T09:43:52.851Z,20.72
2022-09-26T09:44:52.966Z,20.88
2022-09-26T09:45:53.070Z,22
2022-09-26T09:46:53.237Z,21.28
2022-09-26T09:47:53.317Z,22.48
2022-09-26T09:48:53.421Z,21.84
2022-09-26T09:49:53.517Z,21.92
2022-09-26T09:50:53.617Z,21.44
2022-09-26T09:51:53.721Z,23.04
2022-09-26T09:52:53.866Z,21.44
2022-09-26T09:53:53.969Z,21.28
2022-09-26T09:54:54.124Z,21.12
2022-09-26T09:55:54.222Z,20.88
2022-09-26T09:56:54.335Z,21.44
2022-09-26T09:57:54.484Z,22.88
2022-09-26T09:58:54.579Z,22.88
2022-09-26T09:59:54.750Z,22.72
2022-09-26T10:00:54.877Z,22.72
2022-09-26T10:01:54.981Z,23.84
2022-09-26T10:02:55.184Z,22
2022-09-26T10:03:55.241Z,22.32
2022-09-26T10:04:55.338Z,22.08
2022-09-26T10:05:55.440Z,20.24
2022-09-26T10:06:55.590Z,19.2
2022-09-26T10:07:55.749Z,18.88
2022-09-26T10:08:55.898Z,18.8
2022-09-26T10:09:55.995Z,19.6
2022-09-26T10:10:56.153Z,19.52
2022-09-26T10:11:56.303Z,18.72
2022-09-26T10:12:56.465Z,18.32
2022-09-26T10:13:56.608Z,19.2
2022-09-26T10:14:56.706Z,19.68
2022-09-26T10:15:56.855Z,18.4
2022-09-26T10:16:56.958Z,18.48
2022-09-26T10:18:22.779Z,18.8
2022-09-26T10:19:02.404Z,18.88
2022-09-26T10:19:57.314Z,20
2022-09-26T10:20:57.431Z,21.44
2022-09-26T10:21:57.576Z,21.44
2022-09-26T10:22:57.670Z,20.48
2022-09-26T10:23:57.773Z,20
2022-09-26T10:24:57.872Z,20.24
2022-09-26T10:25:58.029Z,21.2
2022-09-26T10:26:58.476Z,21.52
2022-09-26T10:27:58.583Z,21.84
2022-09-26T10:28:58.735Z,23.84
2022-09-26T10:29:58.857Z,22.48
2022-09-26T10:30:58.973Z,23.12
2022-09-26T10:31:59.037Z,21.28
2022-09-26T10:32:59.142Z,21.04
2022-09-26T10:33:59.291Z,19.92
2022-09-26T10:34:59.440Z,20.4
2022-09-26T10:35:59.544Z,21.84
2022-09-26T10:36:59.693Z,21.52
2022-09-26T10:37:59.853Z,21.2
2022-09-26T10:38:59.953Z,22.64
2022-09-26T10:40:00.148Z,21.6
2022-09-26T10:41:00.296Z,22.48
2022-09-26T10:42:00.304Z,22.32
2022-09-26T10:43:00.462Z,22.48
2022-09-26T10:44:00.558Z,21.04
2022-09-26T10:45:00.665Z,20.24
2022-09-26T10:46:00.855Z,19.68
2022-09-26T10:47:00.927Z,21.2
2022-09-26T10:48:01.022Z,20.88
2022-09-26T10:49:01.177Z,22
2022-09-26T10:50:01.269Z,22.88
2022-09-26T10:51:01.416Z,20.64
2022-09-26T10:52:01.654Z,20.08
2022-09-26T10:53:01.622Z,20.4
2022-09-26T10:54:01.775Z,22
2022-09-26T10:55:01.889Z,21.84
2022-09-26T10:56:02.027Z,21.52
2022-09-26T10:57:02.130Z,21.52
2022-09-26T10:58:02.303Z,22.72
2022-09-26T10:59:02.383Z,22
2022-09-26T11:00:02.490Z,21.84
2022-09-26T11:01:02.590Z,21.44
2022-09-26T11:02:02.772Z,19.44
2022-09-26T11:03:02.894Z,18.32
2022-09-26T11:04:03.053Z,18.88
2022-09-26T11:05:03.102Z,20.8
2022-09-26T11:06:03.245Z,20.88
2022-09-26T11:07:03.396Z,20.4
2022-09-26T11:08:03.506Z,21.44
2022-09-26T11:09:03.599Z,23.52
2022-09-26T11:10:03.763Z,21.2
2022-09-26T11:11:03.906Z,22.24
2022-09-26T11:12:04.055Z,22.24
2022-09-26T11:13:04.164Z,22.32
2022-09-26T11:14:04.282Z,22
2022-09-26T11:15:04.375Z,23.6
2022-09-26T11:16:04.570Z,23.2
2022-09-26T11:17:04.669Z,22.4
2022-09-26T11:18:04.765Z,21.12
2022-09-26T11:19:04.940Z,20.32
2022-09-26T11:20:05.068Z,19.2
2022-09-26T11:21:11.195Z,20.72
2022-09-26T11:22:08.153Z,21.92
2022-09-26T11:23:05.485Z,21.44
2022-09-26T11:24:05.726Z,21.2
2022-09-26T11:29:05.791Z,21.2
2022-09-26T11:29:06.298Z,24
2022-09-26T11:30:06.387Z,23.44
2022-09-26T11:31:06.564Z,23.44
2022-09-26T11:32:06.642Z,23.04
2022-09-26T11:33:06.794Z,23.04
2022-09-26T11:34:06.935Z,24.4
2022-09-26T11:35:07.051Z,23.28
2022-09-26T11:36:07.203Z,22.4
2022-09-26T11:37:07.297Z,21.04
2022-09-26T11:38:07.468Z,22.72
2022-09-26T11:39:07.607Z,24.4
2022-09-26T11:40:09.880Z,24.4
2022-09-26T11:41:07.858Z,24.32
2022-09-26T11:42:08.012Z,23.84
2022-09-26T11:43:08.166Z,22.64
2022-09-26T11:44:08.270Z,21.6
2022-09-26T11:45:08.432Z,20.88
2022-09-26T11:46:08.603Z,22.24
2022-09-26T11:47:08.672Z,24.4
2022-09-26T11:48:08.767Z,23.04
2022-09-26T11:49:08.930Z,21.28
2022-09-26T11:50:09.023Z,22.4
2022-09-26T11:51:09.126Z,24.08
2022-09-26T11:52:09.227Z,23.12
2022-09-26T11:53:09.382Z,22.24
2022-09-26T11:54:09.516Z,23.68
2022-09-26T11:55:09.632Z,22.24
2022-09-26T11:56:09.738Z,20.72
2022-09-26T11:57:09.839Z,21.6
2022-09-26T11:58:09.985Z,22.48
2022-09-26T11:59:10.091Z,24.4
2022-09-26T12:00:10.347Z,22.88
2022-09-26T12:01:10.637Z,19.6
2022-09-26T12:02:10.495Z,18.08
2022-09-26T12:03:10.662Z,18
2022-09-26T12:04:10.802Z,18.64
2022-09-26T12:05:10.804Z,20
2022-09-26T12:06:10.911Z,21.68
2022-09-26T12:07:11.056Z,22.8
2022-09-26T12:08:11.209Z,22.64
2022-09-26T12:09:11.305Z,21.84
2022-09-26T12:10:11.461Z,21.6
2022-09-26T12:11:11.560Z,21.2
2022-09-26T12:12:11.663Z,20.08
2022-09-26T12:13:11.814Z,20.08
2022-09-26T12:14:12.019Z,22.4
2022-09-26T12:15:12.071Z,22.88
2022-09-26T12:16:12.355Z,23.52
2022-09-26T12:17:12.321Z,21.84
2022-09-26T12:18:12.465Z,20.4
2022-09-26T12:19:16.252Z,20.4
2022-09-26T12:20:12.686Z,20.24
2022-09-26T12:21:12.789Z,20.08
2022-09-26T12:22:12.933Z,19.12
2022-09-26T12:23:13.083Z,19.68
2022-09-26T12:24:13.236Z,20.64
2022-09-26T12:25:16.608Z,19.44
2022-09-26T12:26:13.394Z,19.04
2022-09-26T12:27:13.566Z,19.12
2022-09-26T12:28:13.713Z,20.48
2022-09-26T12:29:13.868Z,19.52
2022-09-26T12:30:14.005Z,19.68
2022-09-26T12:31:18.774Z,20.08
2022-09-26T12:32:14.300Z,20.48
2022-09-26T12:33:14.398Z,19.52
2022-09-26T12:34:14.616Z,19.92
2022-09-26T12:35:14.655Z,19.2
2022-09-26T12:36:14.805Z,18.88
2022-09-26T12:37:14.908Z,18.48
2022-09-26T12:38:15.022Z,17.68
2022-09-26T12:39:15.238Z,18.24
2022-09-26T12:40:15.294Z,18.32
2022-09-26T12:41:15.412Z,17.6
2022-09-26T12:42:15.518Z,17.68
2022-09-26T12:43:15.616Z,17.12
2022-09-26T12:44:15.723Z,17.6
2022-09-26T12:45:15.850Z,17.44
2022-09-26T12:46:16.000Z,16.8
2022-09-26T12:47:16.033Z,16.64
2022-09-26T12:48:16.180Z,16.8
2022-09-26T12:49:16.444Z,16.8
2022-09-26T12:50:16.381Z,17.04
2022-09-26T12:51:16.533Z,16.64
2022-09-26T12:52:16.683Z,17.2
2022-09-26T12:53:16.841Z,16.8
2022-09-26T12:54:16.939Z,16.4
2022-09-26T12:55:17.039Z,16.64
2022-09-26T12:56:17.146Z,16.88
2022-09-26T12:57:17.253Z,16.64
2022-09-26T12:58:17.347Z,16.8
2022-09-26T12:59:17.451Z,16.64
2022-09-26T13:00:17.605Z,17.04
2022-09-26T13:01:17.799Z,17.2
2022-09-26T13:02:17.921Z,17.12